• Join FlightAware (Why Join?)
  • Login
  • US Flag 
06:02PM EDT


 

Airport Tracker/Info


-or-


 

Live Flight TrackerFlight Track Log ✈ POE428 ✈ 01-Jul-2012 ✈ CYUL - CYTZ

Flight Track Log - Related Links

Times and Time Zones

All times are in EDT time to prevent confusion due to time zone crossing. See the POE428 flight status page for this flight to view local times or setup timezone preferences in your user account.

Time Position Orientation Groundspeed Altitude Reporting Facility
EDT Latitude Longitude Course Direction KTS MPH feet Rate Location/Type
08:19PM 45.4500 -73.8000 264° West 140 161 2,400  Level Montreal Center
08:23PM 45.4167 -74.2167 270° West 270 311 11,500 1,860 Climbing Toronto Center
08:24PM 45.4167 -74.3333 235° Southwest 270 311 13,300 1,920 Climbing Toronto Center
08:25PM 45.3667 -74.4333 235° Southwest 270 311 15,400 1,740 Climbing Toronto Center
08:26PM 45.3333 -74.5000 245° Southwest 260 299 16,800 1,440 Climbing Toronto Center
08:27PM 45.3000 -74.6000 245° Southwest 270 311 18,300 1,320 Climbing Toronto Center
08:28PM 45.2667 -74.7000 257° West 270 311 19,500 1,200 Climbing Toronto Center
08:29PM 45.2500 -74.8000 245° Southwest 270 311 20,800 1,200 Climbing Toronto Center
08:30PM 45.2167 -74.9000 235° Southwest 270 311 21,900 600 Climbing Toronto Center
08:31PM 45.1667 -75.0000 248° West 290 334 22,000  Climbing Toronto Center
08:32PM 45.1333 -75.1167 248° West 310 357 22,000  Level Toronto Center
08:33PM 45.1000 -75.2333 242° Southwest 330 380 22,000  Level Toronto Center
08:34PM 45.0500 -75.3667 239° Southwest 330 380 22,000  Level Toronto Center
08:35PM 45.0000 -75.4833 257° West 340 391 22,000  Level Toronto Center
08:36PM 44.9833 -75.5833 239° Southwest 340 391 22,000  Level Toronto Center
08:37PM 44.9333 -75.7000 239° Southwest 340 391 22,000  Level Toronto Center
08:38PM 44.8833 -75.8167 239° Southwest 340 391 22,000  Level Toronto Center
08:39PM 44.8333 -75.9333 251° West 340 391 22,000  Level Toronto Center
08:40PM 44.8000 -76.0667 248° West 340 391 22,000  Level Toronto Center
08:41PM 44.7667 -76.1833 227° Southwest 340 391 22,000  Level Toronto Center
08:42PM 44.7000 -76.2833 227° Southwest 340 391 22,000  Level Toronto Center
08:43PM 44.6333 -76.3833 215° Southwest 350 403 22,000  Level Toronto Center
08:44PM 44.5500 -76.4667 227° Southwest 350 403 22,000  Level Toronto Center
08:45PM 44.4833 -76.5667 235° Southwest 350 403 22,000  Level Toronto Center
08:46PM 44.4333 -76.6667 227° Southwest 350 403 22,000  Level Toronto Center
08:47PM 44.3667 -76.7667 221° Southwest 350 403 22,000  Level Toronto Center
08:48PM 44.2833 -76.8667 222° Southwest 350 403 22,000  Level Toronto Center
08:49PM 44.2167 -76.9500 227° Southwest 350 403 22,000  Level Toronto Center
08:50PM 44.1500 -77.0500 227° Southwest 350 403 22,000  Level Toronto Center
08:51PM 44.0833 -77.1500 221° Southwest 350 403 22,000  Level Toronto Center
08:52PM 44.0000 -77.2500 222° Southwest 350 403 22,000  Level Toronto Center
08:53PM 43.9333 -77.3333 259° West 350 403 22,000  Level Toronto Center
08:54PM 43.9167 -77.4500 248° West 340 391 22,000  Level Toronto Center
08:55PM 43.8833 -77.5667 248° West 340 391 22,000 -180 Level Toronto Center
08:56PM 43.8500 -77.6833 253° West 340 391 21,700 -780 Descending Toronto Center
08:57PM 43.8167 -77.8333 248° West 350 403 20,500 -1,200 Descending Toronto Center
08:58PM 43.7833 -77.9500 251° West 350 403 19,400 -1,560 Descending Toronto Center
08:59PM 43.7500 -78.0833 248° West 350 403 17,400 -2,100 Descending Toronto Center
09:00PM 43.7167 -78.2000 259° West 350 403 15,300 -1,920 Descending Toronto Center
09:01PM 43.7000 -78.3167 260° West 340 391 13,600 -1,800 Descending Toronto Center
09:02PM 43.6833 -78.4500 281° West 310 357 11,800 -1,680 Descending Toronto Center
09:03PM 43.7000 -78.5667 257° West 310 357 10,300 -1,500 Descending Toronto Center
09:04PM 43.6833 -78.6667 270° West 280 322 8,900 -1,500 Descending Toronto Center
09:05PM 43.6833 -78.7833 255° West 260 299 7,400 -1,440 Descending Toronto Center
09:06PM 43.6667 -78.8667 270° West 260 299 6,100 -1,200 Descending Toronto Center
09:07PM 43.6667 -78.9667 255° West 250 288 5,000 -1,020 Descending Toronto Center
09:08PM 43.6500 -79.0500 257° West 240 276 4,100 -960 Descending Toronto Center
09:09PM 43.6333 -79.1500 270° West 240 276 3,100 -1,080 Descending Toronto Center
09:10PM 43.6333 -79.2333 270° West 250 288 2,000 -900 Descending Toronto Center
09:11PM 43.6333 -79.3167 235° Southwest 210 242 1,400 -840 Descending Toronto Center
09:12PM 43.6167 -79.3500 235° Southwest 130 150 400 -1,020 Descending Toronto Center